TimeCDT,TemperatureF,Dew PointF,Humidity,Sea Level PressureIn,VisibilityMPH,Wind Direction,Wind SpeedMPH,Gust SpeedMPH,PrecipitationIn,Events,Conditions,WindDirDegrees,DateUTC
12:15 AM,46.4,41.0,81,29.87,10.0,ENE,10.4,-,N/A,,Overcast,70,2013-04-17 05:15:00
12:35 AM,44.6,42.8,93,29.88,3.0,ENE,10.4,-,N/A,,Overcast,60,2013-04-17 05:35:00
12:55 AM,44.6,42.8,93,29.87,1.8,ENE,10.4,-,N/A,,Overcast,70,2013-04-17 05:55:00
1:15 AM,44.6,42.8,93,29.87,1.5,East,9.2,-,N/A,,Overcast,80,2013-04-17 06:15:00
1:55 AM,44.6,42.8,93,29.87,1.5,ENE,11.5,-,N/A,,Overcast,70,2013-04-17 06:55:00
2:15 AM,44.6,42.8,93,29.86,1.5,East,10.4,-,N/A,,Overcast,80,2013-04-17 07:15:00
2:35 AM,44.6,42.8,93,29.85,1.5,East,9.2,-,N/A,,Overcast,80,2013-04-17 07:35:00
2:55 AM,44.6,44.6,100,29.84,1.8,East,10.4,-,N/A,,Overcast,80,2013-04-17 07:55:00
3:15 AM,44.6,42.8,93,29.84,2.0,ENE,9.2,-,N/A,,Overcast,70,2013-04-17 08:15:00
3:35 AM,44.6,42.8,93,29.84,1.8,ENE,8.1,-,N/A,,Overcast,60,2013-04-17 08:35:00
3:55 AM,42.8,42.8,100,29.84,1.8,ENE,9.2,-,N/A,,Overcast,60,2013-04-17 08:55:00
4:15 AM,42.8,42.8,100,29.84,2.0,ENE,10.4,-,N/A,,Overcast,60,2013-04-17 09:15:00
4:35 AM,42.8,42.8,100,29.84,2.5,NE,6.9,-,N/A,,Overcast,50,2013-04-17 09:35:00
4:55 AM,42.8,42.8,100,29.84,2.5,NE,9.2,-,N/A,,Overcast,40,2013-04-17 09:55:00
5:15 AM,42.8,42.8,100,29.84,2.0,NE,8.1,-,N/A,,Overcast,40,2013-04-17 10:15:00
5:35 AM,42.8,42.8,100,29.84,2.5,NE,6.9,-,N/A,,Overcast,50,2013-04-17 10:35:00
5:55 AM,42.8,42.8,100,29.84,2.5,NNE,4.6,-,N/A,,Overcast,30,2013-04-17 10:55:00
6:15 AM,42.8,42.8,100,29.84,3.0,NNE,9.2,-,N/A,,Overcast,30,2013-04-17 11:15:00
6:35 AM,42.8,42.8,100,29.83,2.5,NE,9.2,-,N/A,,Overcast,50,2013-04-17 11:35:00
6:55 AM,42.8,42.8,100,29.82,3.0,NE,9.2,-,N/A,,Overcast,40,2013-04-17 11:55:00
7:15 AM,42.8,42.8,100,29.82,2.5,NE,10.4,-,N/A,,Overcast,40,2013-04-17 12:15:00
7:35 AM,42.8,42.8,100,29.83,3.0,NE,9.2,-,N/A,,Overcast,40,2013-04-17 12:35:00
7:55 AM,41.0,41.0,100,29.84,2.0,NNE,11.5,-,N/A,,Overcast,30,2013-04-17 12:55:00
8:15 AM,41.0,41.0,100,29.84,1.2,NNE,11.5,-,N/A,,Overcast,30,2013-04-17 13:15:00
8:35 AM,41.0,41.0,100,29.85,1.2,NNE,9.2,-,N/A,,Overcast,20,2013-04-17 13:35:00
8:55 AM,39.2,39.2,100,29.84,1.8,NNE,12.7,20.7,N/A,,Overcast,30,2013-04-17 13:55:00
9:15 AM,41.0,41.0,100,29.85,1.8,NNE,12.7,-,N/A,,Overcast,30,2013-04-17 14:15:00
9:35 AM,39.2,39.2,100,29.84,1.5,NNE,11.5,-,N/A,,Overcast,20,2013-04-17 14:35:00
9:55 AM,39.2,39.2,100,29.84,1.8,NNE,12.7,17.3,N/A,,Light Drizzle,30,2013-04-17 14:55:00
10:15 AM,39.2,39.2,100,29.85,1.8,NNE,11.5,-,N/A,,Overcast,30,2013-04-17 15:15:00
10:35 AM,39.2,39.2,100,29.84,1.8,NNE,13.8,-,N/A,,Overcast,20,2013-04-17 15:35:00
10:55 AM,39.2,39.2,100,29.84,2.0,NNE,12.7,-,N/A,,Overcast,30,2013-04-17 15:55:00
11:15 AM,39.2,39.2,100,29.84,2.0,NNE,10.4,-,N/A,,Overcast,30,2013-04-17 16:15:00
11:35 AM,41.0,41.0,100,29.84,3.0,NNE,8.1,-,N/A,,Overcast,30,2013-04-17 16:35:00
11:55 AM,41.0,41.0,100,29.84,5.0,North,10.4,-,N/A,,Overcast,10,2013-04-17 16:55:00
12:15 PM,41.0,41.0,100,29.84,5.0,NNE,10.4,-,N/A,,Overcast,30,2013-04-17 17:15:00
12:35 PM,41.0,41.0,100,29.82,7.0,NNE,10.4,-,N/A,,Overcast,20,2013-04-17 17:35:00
12:55 PM,41.0,41.0,100,29.82,10.0,NNE,11.5,-,N/A,,Overcast,30,2013-04-17 17:55:00
1:15 PM,42.8,41.0,93,29.80,10.0,NNE,11.5,-,N/A,,Overcast,30,2013-04-17 18:15:00
1:35 PM,42.8,41.0,93,29.79,10.0,North,10.4,-,N/A,,Overcast,10,2013-04-17 18:35:00
1:55 PM,42.8,41.0,93,29.78,7.0,NNE,9.2,-,N/A,,Overcast,20,2013-04-17 18:55:00
2:15 PM,42.8,41.0,93,29.76,10.0,North,11.5,-,N/A,,Overcast,10,2013-04-17 19:15:00
2:35 PM,42.8,41.0,93,29.75,10.0,NNE,13.8,-,N/A,,Overcast,30,2013-04-17 19:35:00
2:55 PM,42.8,41.0,93,29.75,10.0,North,12.7,-,N/A,,Overcast,360,2013-04-17 19:55:00
3:15 PM,42.8,41.0,93,29.74,10.0,NNE,13.8,-,N/A,,Overcast,20,2013-04-17 20:15:00
4:15 PM,42.8,41.0,93,29.73,10.0,NNE,13.8,18.4,N/A,,Overcast,20,2013-04-17 21:15:00
4:35 PM,42.8,41.0,93,29.72,7.0,North,12.7,18.4,N/A,,Overcast,10,2013-04-17 21:35:00
4:55 PM,42.8,41.0,93,29.72,3.0,North,15.0,19.6,N/A,,Overcast,10,2013-04-17 21:55:00
5:15 PM,42.8,41.0,93,29.72,1.5,NNE,13.8,20.7,N/A,,Overcast,20,2013-04-17 22:15:00
5:35 PM,42.8,41.0,93,29.71,1.5,NNE,17.3,-,N/A,,Overcast,20,2013-04-17 22:35:00
5:55 PM,41.0,41.0,100,29.70,1.5,NNE,17.3,21.9,N/A,,Overcast,30,2013-04-17 22:55:00
6:15 PM,41.0,41.0,100,29.70,2.0,NNE,16.1,23.0,N/A,,Light Drizzle,30,2013-04-17 23:15:00
6:35 PM,41.0,41.0,100,29.69,2.5,NNE,15.0,20.7,N/A,,Light Drizzle,30,2013-04-17 23:35:00
6:55 PM,41.0,41.0,100,29.69,2.0,NNE,12.7,-,N/A,,Light Drizzle,30,2013-04-17 23:55:00
7:15 PM,41.0,41.0,100,29.71,1.8,NNE,12.7,-,N/A,,Drizzle,20,2013-04-18 00:15:00
7:35 PM,41.0,39.2,93,29.71,2.0,NNE,13.8,20.7,N/A,Rain,Light Rain,20,2013-04-18 00:35:00
8:15 PM,39.2,39.2,100,29.73,4.0,North,16.1,23.0,N/A,Rain,Light Rain,10,2013-04-18 01:15:00
8:35 PM,37.4,37.4,100,29.75,4.0,North,17.3,23.0,N/A,Rain,Light Rain,360,2013-04-18 01:35:00
8:55 PM,37.4,35.6,93,29.76,7.0,North,18.4,25.3,N/A,,Overcast,360,2013-04-18 01:55:00
9:15 PM,35.6,35.6,100,29.79,7.0,North,15.0,23.0,N/A,,Overcast,360,2013-04-18 02:15:00
9:35 PM,35.6,35.6,100,29.79,7.0,North,18.4,27.6,N/A,,Overcast,360,2013-04-18 02:35:00
9:55 PM,35.6,35.6,100,29.80,10.0,North,21.9,27.6,N/A,,Overcast,10,2013-04-18 02:55:00
10:15 PM,35.6,35.6,100,29.84,10.0,North,20.7,29.9,N/A,,Overcast,350,2013-04-18 03:15:00
10:35 PM,35.6,35.6,100,29.86,4.0,North,20.7,29.9,N/A,,Drizzle,350,2013-04-18 03:35:00
10:55 PM,35.6,33.8,93,29.89,7.0,North,19.6,28.8,N/A,Rain,Light Rain,360,2013-04-18 03:55:00
11:35 PM,35.6,33.8,93,29.91,10.0,North,19.6,27.6,N/A,,Overcast,350,2013-04-18 04:35:00
11:55 PM,33.8,33.8,100,29.91,10.0,North,18.4,25.3,N/A,,Overcast,350,2013-04-18 04:55:00